Time;durP1;ratioP1;P1;durP2;ratioP2;P2;SDS_P1;SDS_P2;PMS_P1;PMS_P2;Temp;Humidity;BMP_temperature;BMP_pressure;BME280_temperature;BME280_humidity;BME280_pressure;Samples;Min_cycle;Max_cycle;Signal;HPM_P1;HPM_P2
2022/09/20 01:50:35;;;;;;;0.30;0.30;;;23.50;60.40;;;;;;6952685;23;20458;-47
2022/09/20 01:54:02;;;;;;;0.52;0.45;;;23.30;46.00;;;;;;6198198;28;20960;-46
2022/09/20 01:57:33;;;;;;;0.82;0.40;;;23.40;45.90;;;;;;6179574;28;20207;-48
2022/09/20 02:00:49;;;;;;;0.35;0.25;;;23.50;45.90;;;;;;6185086;28;20045;-48
2022/09/20 02:04:05;;;;;;;0.60;0.50;;;23.70;46.00;;;;;;6195259;28;20064;-47
2022/09/20 02:07:21;;;;;;;0.40;0.30;;;23.40;45.90;;;;;;6192631;28;20107;-47
2022/09/20 02:10:40;;;;;;;0.25;0.25;;;23.70;46.00;;;;;;6182866;28;20298;-46
2022/09/20 02:13:57;;;;;;;0.30;0.30;;;23.40;45.90;;;;;;6192976;28;20894;-48
2022/09/20 02:17:10;;;;;;;0.40;0.30;;;23.40;45.90;;;;;;6193035;28;20041;-47
2022/09/20 02:20:25;;;;;;;0.30;0.30;;;23.30;46.40;;;;;;6194663;28;20151;-48
2022/09/20 02:23:43;;;;;;;0.52;0.32;;;23.00;45.60;;;;;;6194367;28;20359;-48
2022/09/20 02:26:58;;;;;;;0.60;0.30;;;23.60;46.00;;;;;;6174395;28;20447;-47
2022/09/20 02:30:14;;;;;;;0.30;0.20;;;23.60;46.00;;;;;;6193714;28;20052;-48
2022/09/20 02:33:31;;;;;;;0.30;0.25;;;23.60;46.00;;;;;;6197703;28;20402;-47
2022/09/20 02:36:40;;;;;;;0.30;0.30;;;23.50;45.90;;;;;;6195604;28;20053;-46
2022/09/20 02:39:55;;;;;;;0.28;0.28;;;24.00;46.10;;;;;;6195498;28;20863;-47
2022/09/20 02:43:03;;;;;;;0.60;0.50;;;23.40;45.90;;;;;;6185930;28;20032;-47
2022/09/20 02:46:11;;;;;;;0.35;0.28;;;23.10;45.70;;;;;;6200922;28;20119;-50
2022/09/20 02:49:21;;;;;;;0.30;0.30;;;23.30;45.70;;;;;;6181150;28;20053;-48
2022/09/20 02:52:31;;;;;;;0.32;0.30;;;24.10;46.10;;;;;;6193968;28;20071;-47
2022/09/20 02:55:47;;;;;;;0.30;0.20;;;23.20;45.70;;;;;;6190231;28;20922;-49
2022/09/20 02:58:58;;;;;;;0.35;0.30;;;23.60;45.90;;;;;;6175755;28;20064;-48
2022/09/20 03:02:06;;;;;;;0.43;0.43;;;23.20;45.70;;;;;;6191063;28;20620;-48
2022/09/20 03:05:16;;;;;;;0.22;0.22;;;23.50;45.80;;;;;;6192701;28;20049;-46
2022/09/20 03:08:32;;;;;;;0.50;0.50;;;23.20;45.70;;;;;;6196342;28;20051;-48
2022/09/20 03:11:43;;;;;;;0.40;0.30;;;23.00;46.20;;;;;;6159076;28;20281;-46
2022/09/20 03:14:54;;;;;;;0.32;0.20;;;23.10;48.60;;;;;;6174943;28;20446;-48
2022/09/20 03:18:02;;;;;;;;;;;23.00;45.60;;;;;;6198099;28;20698;-49
2022/09/20 03:21:17;;;;;;;0.45;0.30;;;23.10;45.60;;;;;;6196998;28;20325;-47
2022/09/20 03:24:33;;;;;;;0.50;0.30;;;23.10;45.60;;;;;;6192163;28;20520;-48
2022/09/20 03:27:43;;;;;;;0.50;0.30;;;22.90;45.70;;;;;;6193833;28;21250;-48
2022/09/20 03:30:54;;;;;;;1.83;0.30;;;23.50;46.10;;;;;;6169565;28;20181;-49
2022/09/20 03:34:04;;;;;;;2.22;0.40;;;23.20;46.00;;;;;;6180473;28;21126;-48
2022/09/20 03:37:17;;;;;;;0.20;0.20;;;23.00;45.90;;;;;;6198850;28;20261;-46
2022/09/20 03:40:34;;;;;;;1.25;0.35;;;23.40;46.20;;;;;;6196532;28;20138;-46
2022/09/20 03:43:51;;;;;;;0.30;0.30;;;23.60;46.30;;;;;;6197761;28;20163;-46
2022/09/20 03:47:04;;;;;;;1.00;0.30;;;23.20;46.10;;;;;;6195484;28;20705;-49
2022/09/20 03:50:18;;;;;;;0.43;0.32;;;23.30;46.10;;;;;;6197621;28;20073;-46
2022/09/20 03:53:45;;;;;;;0.52;0.20;;;23.00;45.90;;;;;;6197218;28;20057;-46
2022/09/20 03:57:03;;;;;;;1.38;0.30;;;23.30;46.00;;;;;;6191846;28;20830;-47
2022/09/20 04:00:24;;;;;;;0.40;0.20;;;23.00;45.80;;;;;;6192919;28;20037;-48
2022/09/20 04:03:35;;;;;;;0.47;0.37;;;23.30;46.00;;;;;;6191848;28;20705;-46
2022/09/20 04:06:43;;;;;;;;;;;23.20;45.90;;;;;;6193419;28;20576;-47
2022/09/20 04:10:01;;;;;;;0.40;0.22;;;22.80;45.70;;;;;;6177059;28;19928;-47
2022/09/20 04:13:18;;;;;;;0.50;0.32;;;23.00;45.70;;;;;;6193746;28;20416;-46
2022/09/20 04:16:31;;;;;;;0.30;0.30;;;23.10;45.70;;;;;;6176152;28;20311;-47
2022/09/20 04:19:43;;;;;;;0.20;0.20;;;23.10;45.70;;;;;;6171949;28;20042;-47
2022/09/20 04:22:50;;;;;;;0.60;0.30;;;23.30;45.80;;;;;;6189886;28;20302;-45
2022/09/20 04:25:51;;;;;;;0.22;0.22;;;23.20;45.80;;;;;;6191898;28;20049;-46
2022/09/20 04:29:00;;;;;;;0.20;0.20;;;22.90;45.60;;;;;;6192431;28;20528;-46
2022/09/20 04:32:13;;;;;;;0.38;0.38;;;23.30;45.70;;;;;;6181862;28;20131;-50
2022/09/20 04:38:48;;;;;;;0.20;0.20;;;23.10;45.60;;;;;;6198783;28;20099;-51
2022/09/20 04:42:16;;;;;;;0.47;0.35;;;22.80;45.40;;;;;;6199036;28;20924;-48
2022/09/20 04:45:50;;;;;;;0.25;0.22;;;22.90;45.50;;;;;;6189107;28;20033;-49
2022/09/20 04:49:16;;;;;;;0.70;0.47;;;23.00;59.00;;;;;;6168872;28;20130;-51
2022/09/20 04:52:40;;;;;;;0.40;0.30;;;23.20;45.80;;;;;;6202443;28;20932;-48
2022/09/20 04:55:50;;;;;;;0.38;0.30;;;22.90;45.50;;;;;;6186660;28;20041;-47
2022/09/20 04:59:04;;;;;;;1.27;0.30;;;22.90;45.50;;;;;;6188497;28;20892;-48
2022/09/20 05:02:26;;;;;;;0.22;0.20;;;22.90;45.50;;;;;;6168073;28;21145;-51
2022/09/20 05:05:46;;;;;;;0.20;0.20;;;22.80;45.40;;;;;;6197149;28;20083;-48
2022/09/20 05:09:12;;;;;;;0.55;0.30;;;22.90;45.50;;;;;;6201643;28;20133;-47
2022/09/20 05:12:34;;;;;;;0.20;0.20;;;23.00;45.60;;;;;;6190198;28;20163;-49
2022/09/20 05:15:43;;;;;;;0.57;0.32;;;23.20;45.60;;;;;;6200418;28;20461;-48
2022/09/20 05:19:14;;;;;;;0.52;0.30;;;23.00;45.50;;;;;;6199860;28;20045;-47
2022/09/20 05:22:40;;;;;;;0.60;0.30;;;22.80;45.30;;;;;;6164421;28;21336;-50
2022/09/20 05:25:58;;;;;;;0.35;0.28;;;22.90;45.40;;;;;;6196708;28;20041;-51
2022/09/20 05:29:09;;;;;;;0.20;0.20;;;22.70;45.30;;;;;;6195480;28;20041;-50
2022/09/20 05:32:18;;;;;;;0.30;0.13;;;23.00;45.40;;;;;;6192620;28;20159;-49
2022/09/20 05:35:27;;;;;;;0.40;0.40;;;23.00;45.40;;;;;;6196141;28;20773;-48
2022/09/20 05:38:46;;;;;;;0.20;0.20;;;22.90;45.40;;;;;;6177862;28;20033;-48
2022/09/20 05:41:55;;;;;;;0.35;0.30;;;22.80;45.30;;;;;;6197333;28;20148;-52
2022/09/20 05:45:16;;;;;;;0.30;0.30;;;22.70;45.20;;;;;;6162956;28;20905;-46
2022/09/20 05:48:25;;;;;;;0.68;0.30;;;22.80;45.20;;;;;;6188103;28;20048;-47
2022/09/20 05:51:35;;;;;;;0.30;0.30;;;22.90;45.30;;;;;;6190472;28;20033;-46
2022/09/20 05:54:59;;;;;;;1.42;0.40;;;22.60;45.10;;;;;;6190339;28;20068;-51
2022/09/20 05:58:17;;;;;;;0.30;0.30;;;22.90;45.30;;;;;;6167963;28;20880;-49
2022/09/20 06:01:25;;;;;;;0.50;0.30;;;22.90;45.30;;;;;;6182407;28;20976;-47
2022/09/20 06:04:33;;;;;;;0.30;0.30;;;22.60;45.10;;;;;;6170081;28;20230;-46
2022/09/20 06:07:51;;;;;;;0.47;0.30;;;22.50;45.20;;;;;;6150837;28;20168;-49
2022/09/20 06:11:10;;;;;;;0.85;0.40;;;22.30;45.00;;;;;;6182102;28;20995;-47
2022/09/20 06:14:21;;;;;;;0.28;0.20;;;22.70;45.20;;;;;;6169419;28;20041;-50
2022/09/20 06:17:27;;;;;;;0.85;0.22;;;22.80;45.30;;;;;;6177282;28;20061;-53
2022/09/20 06:20:34;;;;;;;0.45;0.30;;;23.00;45.40;;;;;;6172067;28;20048;-47
2022/09/20 06:23:36;;;;;;;0.50;0.50;;;22.80;45.30;;;;;;6163280;28;20057;-52
2022/09/20 06:26:40;;;;;;;0.30;0.30;;;23.00;45.50;;;;;;6166681;28;20044;-49
2022/09/20 06:29:51;;;;;;;0.75;0.40;;;22.60;45.20;;;;;;6162578;28;20044;-46
2022/09/20 06:32:54;;;;;;;0.50;0.40;;;22.60;45.20;;;;;;6128648;28;20055;-47
2022/09/20 06:41:25;;;;;;;0.60;0.35;;;22.90;45.30;;;;;;6093491;28;20517;-50
2022/09/20 06:42:52;;;;;;;0.38;0.35;;;23.20;45.40;;;;;;6100521;28;20061;-51
2022/09/20 06:45:53;;;;;;;0.20;0.20;;;22.70;45.30;;;;;;6093528;28;20046;-51
2022/09/20 06:48:55;;;;;;;0.60;0.43;;;22.80;58.40;;;;;;6074740;28;20076;-46
2022/09/20 06:51:57;;;;;;;0.77;0.40;;;23.20;45.40;;;;;;6081306;28;20051;-51
2022/09/20 06:54:59;;;;;;;0.50;0.47;;;23.10;45.30;;;;;;6076977;28;20049;-51
2022/09/20 06:58:01;;;;;;;0.85;0.40;;;22.70;45.00;;;;;;6056020;28;20068;-49
2022/09/20 07:01:02;;;;;;;0.65;0.35;;;23.20;45.40;;;;;;6008903;28;20428;-48
2022/09/20 07:04:05;;;;;;;0.47;0.45;;;23.00;45.10;;;;;;6002218;28;20042;-48
2022/09/20 07:07:07;;;;;;;0.40;0.40;;;22.40;44.80;;;;;;5986918;28;20140;-50
2022/09/20 07:10:12;;;;;;;0.77;0.50;;;24.60;45.90;;;;;;5942417;28;20845;-52
2022/09/20 07:13:14;;;;;;;0.68;0.32;;;23.10;45.00;;;;;;5994598;28;20041;-49
2022/09/20 07:16:17;;;;;;;0.65;0.50;;;22.90;45.10;;;;;;5889029;28;20862;-46
2022/09/20 07:19:19;;;;;;;0.35;0.32;;;22.80;44.90;;;;;;5922418;28;20045;-45
2022/09/20 07:22:22;;;;;;;2.05;0.70;;;23.00;45.00;;;;;;5940268;28;20045;-46
2022/09/20 07:25:24;;;;;;;0.40;0.38;;;23.20;45.10;;;;;;5878556;28;20048;-47
2022/09/20 07:28:27;;;;;;;1.33;0.40;;;23.00;45.30;;;;;;5896205;28;20159;-49
2022/09/20 07:31:29;;;;;;;0.43;0.30;;;23.10;45.20;;;;;;5858430;28;20192;-48
2022/09/20 07:34:31;;;;;;;0.30;0.30;;;22.80;44.90;;;;;;5914776;28;20092;-49
2022/09/20 07:37:32;;;;;;;0.47;0.32;;;23.10;45.00;;;;;;5885814;28;22138;-49
2022/09/20 07:40:38;;;;;;;0.60;0.30;;;23.10;44.90;;;;;;5896453;28;20048;-50
2022/09/20 07:43:41;;;;;;;0.50;0.35;;;23.00;44.90;;;;;;5933098;28;20099;-48
2022/09/20 07:46:44;;;;;;;0.38;0.38;;;23.20;44.90;;;;;;5893142;28;20119;-48
2022/09/20 07:49:49;;;;;;;0.30;0.30;;;23.50;45.00;;;;;;5883909;28;20041;-49
2022/09/20 07:52:54;;;;;;;0.52;0.30;;;23.30;44.90;;;;;;5879318;28;20076;-49
2022/09/20 07:55:58;;;;;;;0.77;0.50;;;23.20;44.80;;;;;;5869476;28;20130;-50
2022/09/20 07:59:00;;;;;;;0.50;0.43;;;23.30;44.80;;;;;;5908116;28;20033;-50
2022/09/20 08:02:01;;;;;;;0.60;0.40;;;22.60;44.40;;;;;;5811645;28;20250;-51
2022/09/20 08:05:04;;;;;;;4.43;0.47;;;23.10;44.60;;;;;;5821334;28;20044;-51
2022/09/20 08:08:05;;;;;;;0.40;0.30;;;23.20;44.60;;;;;;5806951;28;21024;-51
2022/09/20 08:11:08;;;;;;;0.30;0.30;;;23.40;44.50;;;;;;5890604;28;20049;-47
2022/09/20 08:14:14;;;;;;;0.40;0.30;;;23.20;44.20;;;;;;5804438;28;20075;-48
2022/09/20 08:17:15;;;;;;;0.20;0.20;;;23.10;44.00;;;;;;5869752;28;20080;-53
2022/09/20 08:20:18;;;;;;;0.57;0.28;;;23.40;44.00;;;;;;5880355;28;20040;-51
2022/09/20 08:23:19;;;;;;;0.43;0.30;;;23.20;43.90;;;;;;5856927;28;20120;-53
2022/09/20 08:26:29;;;;;;;0.30;0.20;;;23.30;43.80;;;;;;5893834;28;20045;-54
2022/09/20 08:29:32;;;;;;;0.30;0.20;;;23.30;43.60;;;;;;5869051;28;20046;-52
2022/09/20 08:32:33;;;;;;;0.15;0.15;;;23.40;43.60;;;;;;5887160;28;20175;-54
2022/09/20 08:35:38;;;;;;;0.20;0.20;;;23.30;43.40;;;;;;5858258;28;20199;-51
2022/09/20 08:38:40;;;;;;;0.55;0.40;;;23.40;43.30;;;;;;5877099;28;20045;-52
2022/09/20 08:42:12;;;;;;;0.32;0.20;;;23.10;43.00;;;;;;5867623;28;20045;-51
2022/09/20 08:45:18;;;;;;;0.30;0.20;;;23.30;43.00;;;;;;5846091;28;20389;-53
2022/09/20 08:48:34;;;;;;;0.32;0.20;;;23.50;43.00;;;;;;5857068;28;20497;-51
2022/09/20 08:51:39;;;;;;;0.40;0.30;;;23.50;43.00;;;;;;5862106;28;20485;-54
2022/09/20 08:54:42;;;;;;;0.35;0.30;;;23.40;42.90;;;;;;5814657;28;20187;-52
2022/09/20 08:57:48;;;;;;;0.80;0.20;;;23.50;42.80;;;;;;5873748;28;20049;-51
2022/09/20 09:00:52;;;;;;;0.95;0.20;;;23.60;42.70;;;;;;5888547;28;20044;-56
2022/09/20 09:04:01;;;;;;;0.30;0.20;;;23.40;42.70;;;;;;5876686;28;20088;-54
2022/09/20 09:07:03;;;;;;;0.13;0.13;;;23.50;42.60;;;;;;5760317;28;21597;-54
2022/09/20 09:10:08;;;;;;;1.60;0.30;;;23.40;42.60;;;;;;5839999;28;20971;-53
2022/09/20 09:13:18;;;;;;;0.38;0.20;;;23.60;42.60;;;;;;5859876;28;20049;-52
2022/09/20 09:16:25;;;;;;;0.22;0.13;;;23.50;42.30;;;;;;5865465;28;20045;-54
2022/09/20 09:19:44;;;;;;;0.22;0.20;;;23.60;42.40;;;;;;5924245;28;21609;-52
2022/09/20 09:22:46;;;;;;;0.20;0.15;;;23.60;42.20;;;;;;5911649;28;20746;-52
2022/09/20 09:25:48;;;;;;;0.20;0.20;;;23.30;42.00;;;;;;5932918;28;20070;-53
2022/09/20 09:29:07;;;;;;;0.80;0.20;;;23.70;42.10;;;;;;5908624;28;20153;-54
2022/09/20 09:32:22;;;;;;;0.40;0.20;;;23.60;41.70;;;;;;5870000;28;20048;-56
2022/09/20 09:35:30;;;;;;;0.20;0.20;;;23.50;41.60;;;;;;5870646;28;20044;-52
2022/09/20 09:38:34;;;;;;;0.30;0.28;;;23.50;41.50;;;;;;5908994;28;20081;-55
2022/09/20 09:41:36;;;;;;;0.25;0.20;;;23.40;41.90;;;;;;5916205;28;20794;-56
2022/09/20 09:44:37;;;;;;;0.63;0.10;;;23.70;41.20;;;;;;5940237;28;20048;-56
2022/09/20 09:47:40;;;;;;;0.40;0.25;;;23.60;40.90;;;;;;5936551;28;20045;-56
2022/09/20 09:50:41;;;;;;;0.30;0.22;;;23.70;40.80;;;;;;5933132;28;20042;-55
2022/09/20 09:53:45;;;;;;;0.52;0.40;;;23.60;40.60;;;;;;5929151;28;20263;-54
2022/09/20 09:57:00;;;;;;;0.80;0.35;;;23.60;40.50;;;;;;5930639;28;20139;-51
2022/09/20 10:00:11;;;;;;;0.43;0.30;;;23.70;40.40;;;;;;5904359;28;22047;-54
2022/09/20 10:03:38;;;;;;;0.30;0.25;;;23.60;40.40;;;;;;5889175;28;20052;-49
2022/09/20 10:06:47;;;;;;;0.30;0.20;;;23.70;40.30;;;;;;5936517;28;20575;-52
2022/09/20 10:10:04;;;;;;;0.60;0.30;;;23.60;40.30;;;;;;5915707;28;20130;-54
2022/09/20 10:13:17;;;;;;;0.68;0.20;;;23.40;40.20;;;;;;5904326;28;20075;-53
2022/09/20 10:16:30;;;;;;;0.77;0.52;;;23.70;40.40;;;;;;5902385;28;21774;-53
2022/09/20 10:19:54;;;;;;;0.40;0.17;;;23.60;40.40;;;;;;5898420;28;20037;-52
2022/09/20 10:23:07;;;;;;;0.20;0.20;;;23.40;40.30;;;;;;5948142;28;20811;-55
2022/09/20 10:26:40;;;;;;;0.30;0.20;;;23.80;40.70;;;;;;5911470;28;20155;-56
2022/09/20 10:29:56;;;;;;;0.30;0.20;;;23.90;41.20;;;;;;5954053;28;20045;-56
2022/09/20 10:33:05;;;;;;;0.28;0.20;;;23.70;40.80;;;;;;5932350;28;20898;-54
2022/09/20 10:36:23;;;;;;;0.20;0.20;;;23.80;40.90;;;;;;5967196;28;20041;-55
2022/09/20 10:39:30;;;;;;;0.20;0.20;;;23.80;40.90;;;;;;5999504;28;20037;-53
2022/09/20 10:46:08;;;;;;;0.40;0.30;;;23.80;40.90;;;;;;6012493;28;25426;-56
2022/09/20 10:49:35;;;;;;;2.60;0.30;;;23.70;40.80;;;;;;5999019;28;20050;-54
2022/09/20 10:52:53;;;;;;;0.73;0.30;;;23.80;40.90;;;;;;5986257;28;20056;-54
2022/09/20 10:56:10;;;;;;;1.02;0.30;;;23.90;40.80;;;;;;6026768;28;20050;-56
2022/09/20 10:59:23;;;;;;;1.67;0.40;;;23.70;40.30;;;;;;6053411;28;20742;-52
2022/09/20 11:02:38;;;;;;;0.63;0.30;;;23.70;40.10;;;;;;5998286;28;20038;-53
2022/09/20 11:05:52;;;;;;;0.85;0.45;;;23.80;39.90;;;;;;6002863;28;20037;-55
2022/09/20 11:08:59;;;;;;;0.50;0.50;;;23.80;39.80;;;;;;6029156;28;20211;-52
2022/09/20 11:12:10;;;;;;;0.38;0.25;;;23.90;39.70;;;;;;6043231;28;20173;-57
2022/09/20 11:15:18;;;;;;;0.63;0.50;;;23.40;39.10;;;;;;5995737;28;20042;-57
2022/09/20 11:18:24;;;;;;;1.45;0.38;;;23.90;39.40;;;;;;5986428;28;20175;-53
2022/09/20 11:21:31;;;;;;;0.50;0.50;;;23.70;39.00;;;;;;5977951;28;20167;-52
2022/09/20 11:24:41;;;;;;;1.40;0.40;;;23.70;38.80;;;;;;6024488;28;21230;-52
2022/09/20 11:27:48;;;;;;;0.75;0.40;;;23.90;38.90;;;;;;6009772;28;20033;-57
2022/09/20 11:30:56;;;;;;;1.25;0.40;;;23.70;38.80;;;;;;5942073;28;20033;-55
2022/09/20 11:34:02;;;;;;;1.60;0.50;;;23.80;38.90;;;;;;5933650;28;20835;-54
2022/09/20 11:37:03;;;;;;;0.80;0.70;;;23.80;38.80;;;;;;5960928;28;20041;-52
2022/09/20 11:40:15;;;;;;;0.68;0.40;;;24.70;39.20;;;;;;5939827;28;20036;-54
2022/09/20 11:43:18;;;;;;;0.98;0.50;;;23.80;38.40;;;;;;5929699;28;20041;-54
2022/09/20 11:46:25;;;;;;;0.95;0.45;;;23.70;38.30;;;;;;5913283;28;21274;-53
2022/09/20 11:49:33;;;;;;;1.75;0.50;;;23.70;38.50;;;;;;5966523;28;20049;-52
2022/09/20 11:52:54;;;;;;;1.10;0.40;;;23.50;38.10;;;;;;5969801;28;20126;-56
2022/09/20 11:56:05;;;;;;;1.23;0.40;;;23.90;38.30;;;;;;5958000;28;21019;-54
2022/09/20 11:59:25;;;;;;;0.60;0.30;;;23.70;38.30;;;;;;5933913;28;23035;-53
2022/09/20 12:02:33;;;;;;;0.50;0.30;;;23.70;38.30;;;;;;5908761;28;21779;-54
2022/09/20 12:05:39;;;;;;;0.45;0.28;;;23.90;38.40;;;;;;5820925;28;20752;-53
2022/09/20 12:08:41;;;;;;;0.90;0.45;;;23.90;39.00;;;;;;5781815;28;20171;-52
2022/09/20 12:11:43;;;;;;;0.75;0.40;;;23.50;38.10;;;;;;5835957;28;20088;-55
2022/09/20 12:14:54;;;;;;;0.85;0.50;;;23.80;38.30;;;;;;5815382;28;20045;-54
2022/09/20 12:18:14;;;;;;;0.43;0.30;;;23.70;38.30;;;;;;5811090;28;20102;-52
2022/09/20 12:21:19;;;;;;;0.88;0.22;;;23.80;38.40;;;;;;5846698;28;20073;-54
2022/09/20 12:24:21;;;;;;;1.88;0.30;;;23.80;37.90;;;;;;5808040;28;22834;-55
2022/09/20 12:27:56;;;;;;;0.40;0.30;;;23.90;38.60;;;;;;5823781;28;20053;-55
2022/09/20 12:31:21;;;;;;;1.55;0.30;;;23.80;38.90;;;;;;5852762;28;20719;-51
2022/09/20 12:34:34;;;;;;;0.30;0.28;;;23.80;39.10;;;;;;5809367;28;27081;-56
2022/09/20 12:37:36;;;;;;;0.50;0.30;;;23.80;39.30;;;;;;5803071;28;20081;-54
2022/09/20 12:40:57;;;;;;;0.95;0.30;;;23.80;39.60;;;;;;5853047;28;20038;-54
2022/09/20 12:44:04;;;;;;;0.30;0.25;;;23.50;39.60;;;;;;5810419;28;20058;-55
2022/09/20 12:47:18;;;;;;;0.63;0.45;;;23.90;39.80;;;;;;5769821;28;20057;-55
2022/09/20 12:53:37;;;;;;;0.75;0.30;;;23.90;40.30;;;;;;5855726;28;20084;-55
2022/09/20 12:56:43;;;;;;;0.55;0.43;;;23.90;40.20;;;;;;5845774;28;20132;-56
2022/09/20 12:59:55;;;;;;;0.82;0.60;;;24.00;40.40;;;;;;5838006;28;24275;-57
2022/09/20 13:02:58;;;;;;;;;;;24.00;40.70;;;;;;5753900;28;20250;-56
2022/09/20 13:06:24;;;;;;;0.80;0.70;;;23.90;40.60;;;;;;5784564;28;19935;-57
2022/09/20 13:09:27;;;;;;;1.60;0.40;;;24.00;41.00;;;;;;5785941;28;20077;-58
2022/09/20 13:12:30;;;;;;;1.05;0.50;;;23.90;41.00;;;;;;5814492;28;22207;-53
2022/09/20 13:15:34;;;;;;;0.60;0.30;;;24.00;41.20;;;;;;5777179;28;20046;-54
2022/09/20 13:18:38;;;;;;;1.40;0.50;;;24.00;41.40;;;;;;5812311;28;20041;-56
2022/09/20 13:21:50;;;;;;;0.40;0.20;;;23.80;41.20;;;;;;5839538;28;20581;-54
2022/09/20 13:24:58;;;;;;;0.50;0.47;;;24.10;41.50;;;;;;5860374;28;21529;-56
2022/09/20 13:28:08;;;;;;;0.60;0.38;;;24.00;41.50;;;;;;5836773;28;20053;-55
2022/09/20 13:31:28;;;;;;;0.47;0.30;;;24.20;41.60;;;;;;5823857;28;20037;-55
2022/09/20 13:34:30;;;;;;;0.75;0.40;;;24.00;41.70;;;;;;5777753;28;20045;-54
2022/09/20 13:37:33;;;;;;;0.77;0.50;;;24.10;41.60;;;;;;5853692;28;20212;-56
2022/09/20 13:40:37;;;;;;;0.80;0.57;;;24.20;41.60;;;;;;5850077;28;20050;-55
2022/09/20 13:43:40;;;;;;;2.30;0.60;;;24.20;41.70;;;;;;5819181;28;21646;-52
2022/09/20 13:46:44;;;;;;;1.17;0.60;;;24.20;41.80;;;;;;5833566;28;20057;-53
2022/09/20 13:49:46;;;;;;;0.82;0.60;;;24.10;41.70;;;;;;5850726;28;20087;-50
2022/09/20 13:52:50;;;;;;;1.45;0.70;;;24.30;41.90;;;;;;5832670;28;20034;-51
2022/09/20 13:55:54;;;;;;;1.73;0.60;;;24.30;42.10;;;;;;5815637;28;21347;-53
2022/09/20 13:58:57;;;;;;;3.67;0.80;;;24.20;42.20;;;;;;5834383;28;20046;-52
2022/09/20 14:02:00;;;;;;;1.02;0.43;;;24.20;42.40;;;;;;5835545;28;20176;-51
2022/09/20 14:05:04;;;;;;;1.08;0.95;;;23.80;42.20;;;;;;5846050;28;21668;-53
2022/09/20 14:08:12;;;;;;;3.20;0.68;;;24.20;42.40;;;;;;5813395;28;20163;-47
2022/09/20 14:11:18;;;;;;;1.88;0.55;;;24.20;42.50;;;;;;5852538;28;20037;-52
2022/09/20 14:14:20;;;;;;;1.17;0.52;;;24.20;42.50;;;;;;5858315;28;20076;-50
2022/09/20 14:17:27;;;;;;;4.00;1.05;;;24.00;42.50;;;;;;5850226;28;21193;-48
2022/09/20 14:20:30;;;;;;;3.53;0.80;;;24.40;42.90;;;;;;5875898;28;20060;-52
2022/09/20 14:23:31;;;;;;;1.85;0.80;;;24.20;43.00;;;;;;5902112;28;20092;-52
2022/09/20 14:26:35;;;;;;;1.67;1.02;;;24.20;43.20;;;;;;5894238;28;20038;-54
2022/09/20 14:29:39;;;;;;;3.83;1.00;;;24.00;43.30;;;;;;5868008;28;20088;-54
2022/09/20 14:32:50;;;;;;;3.30;1.00;;;24.30;43.80;;;;;;5798402;28;20169;-54
2022/09/20 14:35:52;;;;;;;2.38;0.90;;;24.30;44.20;;;;;;5803142;28;20102;-53
2022/09/20 14:38:57;;;;;;;1.40;0.90;;;24.20;44.40;;;;;;5762515;28;25667;-50
2022/09/20 14:42:00;;;;;;;4.35;1.42;;;23.70;44.40;;;;;;5755495;28;43823;-55
2022/09/20 14:45:04;;;;;;;3.25;1.05;;;24.20;45.00;;;;;;5792192;28;26770;-56
2022/09/20 14:48:32;;;;;;;1.63;0.90;;;24.10;45.30;;;;;;5844906;28;26699;-55
2022/09/20 14:51:33;;;;;;;3.70;1.10;;;24.00;45.60;;;;;;5884688;28;20050;-55
2022/09/20 14:54:35;;;;;;;1.65;0.93;;;24.10;45.80;;;;;;5877807;28;20167;-53
2022/09/20 14:57:37;;;;;;;1.77;0.80;;;24.10;45.90;;;;;;5894415;28;20048;-56
2022/09/20 15:00:49;;;;;;;1.60;1.17;;;24.00;46.00;;;;;;5854664;28;21154;-52
2022/09/20 15:03:56;;;;;;;5.32;1.17;;;24.10;46.30;;;;;;5847230;28;20084;-54
2022/09/20 15:07:02;;;;;;;2.25;1.00;;;24.00;46.30;;;;;;5861888;28;22478;-53
2022/09/20 15:10:05;;;;;;;1.48;1.00;;;24.20;46.50;;;;;;5867133;28;20042;-56
2022/09/20 15:13:08;;;;;;;2.78;0.80;;;24.00;46.40;;;;;;5887349;28;21211;-54
2022/09/20 15:16:12;;;;;;;2.35;0.80;;;24.00;46.50;;;;;;5866239;28;20179;-53
2022/09/20 15:19:16;;;;;;;1.75;0.70;;;24.10;46.60;;;;;;5850622;28;21207;-53
2022/09/20 15:22:17;;;;;;;1.67;0.90;;;24.00;46.80;;;;;;5899994;28;20045;-55
2022/09/20 15:25:20;;;;;;;1.58;1.00;;;24.00;46.70;;;;;;5890027;28;21395;-55
2022/09/20 15:28:22;;;;;;;3.03;0.82;;;24.00;46.70;;;;;;5907954;28;20042;-54
2022/09/20 15:31:23;;;;;;;1.52;0.70;;;24.00;46.60;;;;;;5921090;28;20132;-53
2022/09/20 15:34:31;;;;;;;3.05;0.80;;;24.00;46.70;;;;;;5911680;28;20946;-55
2022/09/20 15:37:33;;;;;;;1.65;0.77;;;24.00;46.60;;;;;;5903068;28;20045;-54
2022/09/20 15:40:40;;;;;;;2.05;0.75;;;23.80;46.30;;;;;;5931850;28;20030;-55
2022/09/20 15:43:48;;;;;;;1.05;0.70;;;24.00;46.50;;;;;;5934206;28;20038;-55
2022/09/20 15:46:50;;;;;;;1.17;0.50;;;24.10;46.40;;;;;;5937365;28;20048;-56
2022/09/20 15:49:52;;;;;;;1.95;0.63;;;23.90;46.30;;;;;;5941949;28;20041;-55
2022/09/20 15:52:53;;;;;;;0.90;0.80;;;24.10;46.40;;;;;;5956097;28;22515;-56
2022/09/20 15:56:03;;;;;;;1.40;0.75;;;24.10;46.50;;;;;;5948833;28;20046;-53
2022/09/20 15:59:06;;;;;;;2.15;0.40;;;23.80;46.20;;;;;;5926289;28;20038;-55
2022/09/20 16:02:08;;;;;;;1.45;0.80;;;24.10;46.30;;;;;;5931252;28;20124;-54
2022/09/20 16:05:11;;;;;;;2.28;0.85;;;24.00;46.30;;;;;;5942498;28;20057;-50
2022/09/20 16:08:15;;;;;;;0.90;0.60;;;23.80;46.10;;;;;;5964109;28;20119;-54
2022/09/20 16:11:20;;;;;;;0.40;0.30;;;23.90;46.10;;;;;;5968279;28;20046;-51
2022/09/20 16:14:29;;;;;;;0.47;0.43;;;24.20;46.20;;;;;;5963383;28;20041;-54
2022/09/20 16:20:48;;;;;;;0.82;0.40;;;24.30;46.20;;;;;;5976043;28;20053;-54
2022/09/20 16:23:51;;;;;;;0.93;0.38;;;24.20;46.10;;;;;;6003254;28;20133;-54
2022/09/20 16:26:53;;;;;;;0.60;0.40;;;24.10;46.00;;;;;;6005842;28;20041;-55
2022/09/20 16:29:55;;;;;;;0.50;0.40;;;24.20;46.10;;;;;;5972915;28;20053;-55
2022/09/20 16:33:00;;;;;;;0.50;0.40;;;24.20;46.10;;;;;;6054441;28;22672;-54
2022/09/20 16:36:02;;;;;;;0.70;0.50;;;24.10;46.10;;;;;;6032894;28;20205;-53
2022/09/20 16:39:04;;;;;;;0.57;0.40;;;24.40;46.10;;;;;;6046448;28;20038;-53
2022/09/20 16:42:07;;;;;;;0.43;0.30;;;24.30;46.10;;;;;;6064602;28;20046;-54
2022/09/20 16:45:12;;;;;;;0.65;0.45;;;24.50;46.20;;;;;;6064279;28;20049;-56
2022/09/20 16:48:13;;;;;;;0.60;0.40;;;24.30;46.20;;;;;;6077568;28;20914;-55
2022/09/20 16:51:15;;;;;;;0.38;0.30;;;24.30;46.10;;;;;;6038072;28;20042;-55
2022/09/20 16:54:18;;;;;;;0.73;0.40;;;24.30;46.10;;;;;;6074105;28;20049;-55
2022/09/20 16:57:22;;;;;;;0.40;0.20;;;24.30;46.10;;;;;;6060923;28;22063;-59
2022/09/20 17:00:23;;;;;;;0.30;0.20;;;24.60;46.20;;;;;;6077368;28;22931;-56
2022/09/20 17:03:26;;;;;;;0.40;0.30;;;24.30;46.10;;;;;;6079453;28;20042;-55
2022/09/20 17:06:33;;;;;;;0.22;0.22;;;24.20;46.00;;;;;;6074314;28;20172;-56
2022/09/20 17:09:34;;;;;;;1.20;0.20;;;24.50;46.10;;;;;;6086561;28;20908;-56
2022/09/20 17:12:40;;;;;;;0.40;0.40;;;24.30;46.00;;;;;;6089549;28;20048;-56
2022/09/20 17:15:42;;;;;;;0.30;0.30;;;24.30;46.00;;;;;;6094275;28;21126;-58
2022/09/20 17:18:44;;;;;;;0.20;0.20;;;24.40;46.10;;;;;;6111316;28;21415;-55
2022/09/20 17:21:48;;;;;;;0.40;0.40;;;24.30;45.90;;;;;;6116399;28;20153;-57
2022/09/20 17:24:50;;;;;;;1.17;0.40;;;24.30;45.90;;;;;;6103856;28;20169;-55
2022/09/20 17:27:51;;;;;;;0.20;0.20;;;24.40;46.00;;;;;;6111833;28;20053;-56
2022/09/20 17:30:59;;;;;;;0.30;0.30;;;24.40;46.00;;;;;;6110261;28;20034;-55
2022/09/20 17:34:08;;;;;;;0.30;0.20;;;24.50;46.00;;;;;;6117747;28;20165;-56
2022/09/20 17:37:11;;;;;;;0.30;0.30;;;24.30;45.90;;;;;;6103595;28;20038;-56
2022/09/20 17:40:12;;;;;;;0.35;0.30;;;24.50;46.00;;;;;;6126689;28;21199;-55
2022/09/20 17:43:15;;;;;;;0.30;0.25;;;24.50;46.00;;;;;;6127456;28;20042;-56
2022/09/20 17:46:21;;;;;;;0.38;0.28;;;24.40;46.10;;;;;;6120963;28;21257;-55
2022/09/20 17:49:24;;;;;;;0.43;0.40;;;24.50;46.10;;;;;;6107322;28;20046;-56
2022/09/20 17:52:26;;;;;;;0.38;0.32;;;24.50;46.10;;;;;;6125540;28;20038;-55
2022/09/20 17:55:28;;;;;;;0.30;0.30;;;24.50;46.20;;;;;;6117816;28;20053;-56
2022/09/20 17:58:32;;;;;;;0.20;0.20;;;24.30;46.10;;;;;;6127590;28;20034;-57
2022/09/20 18:01:34;;;;;;;0.43;0.30;;;24.20;46.10;;;;;;6106274;28;20095;-57
2022/09/20 18:04:36;;;;;;;0.57;0.30;;;24.50;46.30;;;;;;6117828;28;20045;-57
2022/09/20 18:07:38;;;;;;;0.52;0.22;;;24.50;46.40;;;;;;6122939;28;20160;-57
2022/09/20 18:10:40;;;;;;;0.63;0.52;;;24.30;46.30;;;;;;6122380;28;20037;-53
2022/09/20 18:13:41;;;;;;;0.30;0.30;;;24.50;46.50;;;;;;6126087;28;20156;-58
2022/09/20 18:16:43;;;;;;;0.50;0.35;;;24.30;46.50;;;;;;6136476;28;20038;-56
2022/09/20 18:19:44;;;;;;;0.40;0.40;;;24.50;46.60;;;;;;6132875;28;20042;-54
2022/09/20 18:22:48;;;;;;;0.35;0.30;;;24.20;46.50;;;;;;6127816;28;20048;-56
2022/09/20 18:29:08;;;;;;;0.47;0.40;;;24.40;46.70;;;;;;6135113;28;20053;-57
2022/09/20 18:32:09;;;;;;;0.50;0.47;;;24.50;46.90;;;;;;6120798;28;20048;-57